Time;durP1;ratioP1;P1;durP2;ratioP2;P2;SDS_P1;SDS_P2;PMS_P1;PMS_P2;Temp;Humidity;BMP_temperature;BMP_pressure;BME280_temperature;BME280_humidity;BME280_pressure;Samples;Min_cycle;Max_cycle;Signal;HPM_P1;HPM_P2
2022/12/17 13:06:05;;;;;;;59.75;27.15;;;;;;;-1.49;100.00;102541.25;1023628;28;20490;-76
2022/12/17 13:06:45;;;;;;;64.38;29.00;;;;;;;-1.48;100.00;102532.50;1023358;28;20393;-76
2022/12/17 13:07:27;;;;;;;66.50;28.73;;;;;;;-1.48;100.00;102542.94;1024784;28;20302;-83
2022/12/17 13:08:07;;;;;;;54.30;24.67;;;;;;;-1.46;100.00;102536.69;1023167;28;20832;-76
2022/12/17 13:08:39;;;;;;;59.25;25.67;;;;;;;-1.49;100.00;102530.81;1019183;29;20514;-76
2022/12/17 13:09:14;;;;;;;55.60;28.88;;;;;;;-1.49;100.00;102530.81;1019598;29;20056;-74
2022/12/17 13:09:49;;;;;;;59.10;28.58;;;;;;;-1.57;100.00;102534.75;1022145;29;20339;-74
2022/12/17 13:10:28;;;;;;;58.28;25.88;;;;;;;-1.48;100.00;102537.72;1023245;28;20386;-76
2022/12/17 13:11:31;;;;;;;60.20;29.52;;;;;;;-1.39;100.00;102531.91;1021574;28;20318;-77
2022/12/17 13:12:08;;;;;;;51.22;24.52;;;;;;;-1.56;100.00;102531.22;1017440;29;20303;-76
2022/12/17 13:12:44;;;;;;;55.38;26.33;;;;;;;-1.60;100.00;102536.72;1019995;28;20311;-77
2022/12/17 13:13:25;;;;;;;58.15;27.77;;;;;;;-1.61;100.00;102538.50;1023919;28;20314;-76
2022/12/17 13:14:00;;;;;;;58.47;27.98;;;;;;;-1.61;100.00;102533.28;1021995;29;20305;-76
2022/12/17 13:14:45;;;;;;;62.38;28.55;;;;;;;-1.53;100.00;102538.00;1017338;29;20303;-76
2022/12/17 13:15:26;;;;;;;54.70;26.92;;;;;;;-1.65;100.00;102536.16;1023188;28;20303;-76
2022/12/17 13:16:25;;;;;;;53.95;26.48;;;;;;;-1.53;100.00;102537.19;1028008;28;20320;-77
2022/12/17 13:17:01;;;;;;;51.50;24.65;;;;;;;-1.45;100.00;102532.28;1026291;28;20358;-77
2022/12/17 13:17:39;;;;;;;53.38;27.02;;;;;;;-1.41;100.00;102524.16;1023423;28;20326;-74
2022/12/17 13:18:16;;;;;;;59.05;26.70;;;;;;;-1.43;100.00;102530.41;1022998;28;20329;-76
2022/12/17 13:18:47;;;;;;;59.05;27.48;;;;;;;-1.51;100.00;102520.47;1023476;28;20350;-76
2022/12/17 13:19:38;;;;;;;57.30;27.92;;;;;;;-1.52;100.00;102526.63;1024275;28;20294;-76
2022/12/17 13:20:31;;;;;;;65.10;28.98;;;;;;;-1.59;100.00;102518.34;1019173;28;20390;-76
2022/12/17 13:21:05;;;;;;;55.25;27.10;;;;;;;-1.62;100.00;102521.16;1019493;29;20058;-76
2022/12/17 13:21:37;;;;;;;59.25;28.75;;;;;;;-1.56;100.00;102528.59;1015714;29;20304;-76
2022/12/17 13:22:14;;;;;;;64.47;29.58;;;;;;;-1.47;100.00;102518.50;1018234;29;20346;-75
2022/12/17 13:23:07;;;;;;;85.45;29.95;;;;;;;-1.53;100.00;102518.88;1018602;29;20335;-76
2022/12/17 13:23:39;;;;;;;79.93;29.52;;;;;;;-1.64;100.00;102528.25;1019487;28;20310;-76
2022/12/17 13:24:12;;;;;;;98.55;28.98;;;;;;;-1.63;100.00;102527.31;1022322;28;20799;-76
2022/12/17 13:24:49;;;;;;;68.78;30.35;;;;;;;-1.75;100.00;102522.00;1023555;29;20484;-83
2022/12/17 13:25:22;;;;;;;76.75;31.42;;;;;;;-1.53;100.00;102529.34;1017353;29;20315;-82
2022/12/17 13:26:11;;;;;;;59.15;31.02;;;;;;;-1.55;100.00;102532.03;1020879;29;20304;-84
2022/12/17 13:26:43;;;;;;;65.78;33.00;;;;;;;-1.69;100.00;102521.59;1019577;29;20983;-83
2022/12/17 13:27:37;;;;;;;68.60;35.17;;;;;;;-1.76;100.00;102526.38;1025280;28;21103;-83
2022/12/17 13:28:25;;;;;;;58.70;33.42;;;;;;;-1.72;100.00;102525.25;1025433;28;20305;-83
2022/12/17 13:29:00;;;;;;;60.88;32.58;;;;;;;-1.85;100.00;102519.13;1022115;29;20314;-83
2022/12/17 13:29:35;;;;;;;73.40;38.13;;;;;;;-1.84;100.00;102526.00;1014082;29;20335;-82
2022/12/17 13:30:16;;;;;;;71.10;35.95;;;;;;;-2.05;100.00;102527.31;1019948;29;20688;-83
2022/12/17 13:31:02;;;;;;;59.85;33.05;;;;;;;-1.84;100.00;102523.41;1023015;28;20310;-83
2022/12/17 13:31:59;;;;;;;62.15;36.53;;;;;;;-1.86;100.00;102527.88;1029084;28;20652;-83
2022/12/17 13:32:42;;;;;;;65.45;34.65;;;;;;;-1.87;100.00;102528.81;1026018;28;20356;-83
2022/12/17 13:33:39;;;;;;;64.28;35.28;;;;;;;-1.88;100.00;102524.53;1022436;28;20305;-83
2022/12/17 13:34:17;;;;;;;59.38;33.60;;;;;;;-1.78;100.00;102530.84;1020708;29;20287;-83
2022/12/17 13:35:09;;;;;;;71.57;34.42;;;;;;;-1.85;100.00;102528.72;1019368;29;20294;-83
2022/12/17 13:35:41;;;;;;;67.07;34.05;;;;;;;-1.83;100.00;102532.91;1019580;29;20803;-83
2022/12/17 13:36:31;;;;;;;74.43;36.40;;;;;;;-1.84;100.00;102525.19;1019066;29;20307;-83
2022/12/17 13:37:21;;;;;;;72.28;36.38;;;;;;;-1.87;100.00;102523.59;1019535;29;20310;-83
2022/12/17 13:38:06;;;;;;;75.07;37.40;;;;;;;-1.76;100.00;102528.97;1027500;28;20341;-78
2022/12/17 13:39:05;;;;;;;69.78;35.13;;;;;;;-1.85;100.00;102528.72;1024848;28;20669;-76
2022/12/17 13:39:50;;;;;;;61.72;32.50;;;;;;;-1.76;100.00;102534.22;1023601;28;20299;-76
2022/12/17 13:40:37;;;;;;;62.55;35.75;;;;;;;-1.81;100.00;102528.44;1019101;29;20445;-76
2022/12/17 13:41:15;;;;;;;62.83;33.60;;;;;;;-1.91;100.00;102527.34;1015560;29;20813;-76
2022/12/17 13:41:57;;;;;;;59.97;32.33;;;;;;;-1.79;100.00;102518.72;1016827;29;20304;-76
2022/12/17 13:42:31;;;;;;;67.93;34.88;;;;;;;-2.10;100.00;102524.16;1023754;29;20386;-75
2022/12/17 13:43:02;;;;;;;65.22;32.92;;;;;;;-2.20;100.00;102523.84;1018307;29;20296;-83
2022/12/17 13:43:55;;;;;;;68.90;36.95;;;;;;;-2.46;100.00;102522.81;1024754;28;20305;-82
2022/12/17 13:44:43;;;;;;;65.30;35.35;;;;;;;-2.22;100.00;102516.09;1030841;28;20356;-83
2022/12/17 13:45:17;;;;;;;63.58;34.15;;;;;;;-1.99;100.00;102524.31;1024395;28;20362;-83
2022/12/17 13:45:50;;;;;;;65.70;34.42;;;;;;;-2.07;100.00;102521.34;1023122;29;20306;-83
2022/12/17 13:46:42;;;;;;;69.97;38.05;;;;;;;-2.10;100.00;102514.53;1022931;29;20754;-83
2022/12/17 13:47:21;;;;;;;63.33;33.88;;;;;;;-2.18;100.00;102524.63;1018425;29;20303;-84
2022/12/17 13:47:57;;;;;;;61.72;34.47;;;;;;;-2.11;100.00;102522.47;1023267;28;20294;-83
2022/12/17 13:48:29;;;;;;;67.43;34.40;;;;;;;-2.06;100.00;102517.81;1019099;29;20322;-83
2022/12/17 13:49:03;;;;;;;61.13;35.55;;;;;;;-2.30;100.00;102525.34;1020139;29;20339;-83
2022/12/17 13:49:35;;;;;;;63.85;35.00;;;;;;;-2.28;100.00;102519.09;1018994;29;20306;-83
2022/12/17 13:50:25;;;;;;;64.63;36.63;;;;;;;-2.27;100.00;102527.75;1020378;28;20303;-83
2022/12/17 13:51:16;;;;;;;63.00;32.70;;;;;;;-2.32;100.00;102530.66;1024280;28;20307;-83
2022/12/17 13:52:01;;;;;;;64.88;35.25;;;;;;;-2.40;100.00;102527.66;1026107;28;20309;-83
2022/12/17 13:52:44;;;;;;;63.78;34.20;;;;;;;-2.40;100.00;102524.22;1021998;28;20438;-76
2022/12/17 13:53:16;;;;;;;65.15;35.45;;;;;;;-2.30;100.00;102528.78;1022980;28;20784;-76
2022/12/17 13:53:56;;;;;;;64.32;36.42;;;;;;;-2.24;100.00;102533.63;1018888;29;20311;-76
2022/12/17 13:54:28;;;;;;;64.03;34.90;;;;;;;-2.25;100.00;102529.34;1014886;29;20330;-76
2022/12/17 13:55:08;;;;;;;66.72;36.40;;;;;;;-2.33;100.00;102528.13;1020350;28;20307;-75
2022/12/17 13:55:49;;;;;;;64.15;35.22;;;;;;;-2.48;100.00;102524.63;1022389;28;20307;-76
2022/12/17 13:56:29;;;;;;;63.47;37.28;;;;;;;-2.46;100.00;102533.25;1025841;28;20313;-76
2022/12/17 13:57:13;;;;;;;68.35;34.53;;;;;;;-2.41;100.00;102525.16;1015898;29;20176;-76
2022/12/17 13:57:48;;;;;;;64.90;36.60;;;;;;;-2.38;100.00;102519.75;1022242;28;20296;-83
2022/12/17 13:58:29;;;;;;;67.47;36.80;;;;;;;-2.31;100.00;102527.09;1018901;29;20295;-83
2022/12/17 13:59:02;;;;;;;66.38;37.47;;;;;;;-2.41;100.00;102525.16;1019211;29;20892;-83
2022/12/17 13:59:40;;;;;;;62.40;35.55;;;;;;;-2.41;100.00;102525.97;1016423;29;20131;-83
2022/12/17 14:00:38;;;;;;;78.40;40.05;;;;;;;-2.64;100.00;102529.94;1013654;29;20304;-83
2022/12/17 14:01:13;;;;;;;71.40;36.13;;;;;;;-2.59;100.00;102532.28;1011073;29;20444;-83
2022/12/17 14:01:50;;;;;;;69.00;37.25;;;;;;;-2.64;100.00;102521.25;1017951;29;20334;-83
2022/12/17 14:02:29;;;;;;;73.07;36.83;;;;;;;-2.69;100.00;102525.91;1016460;29;20303;-83
2022/12/17 14:03:10;;;;;;;67.05;36.00;;;;;;;-2.78;100.00;102529.03;1021669;28;20298;-83
2022/12/17 14:03:48;;;;;;;76.15;37.60;;;;;;;-2.72;100.00;102526.09;1023324;28;20784;-83
2022/12/17 14:04:37;;;;;;;71.22;38.50;;;;;;;-2.54;100.00;102530.22;1022626;28;20328;-83
2022/12/17 14:05:32;;;;;;;73.20;38.22;;;;;;;-2.50;100.00;102532.56;1019317;29;20305;-83
2022/12/17 14:06:07;;;;;;;66.60;37.92;;;;;;;-2.40;100.00;102530.28;1017361;29;20050;-83
2022/12/17 14:06:39;;;;;;;66.97;36.38;;;;;;;-2.36;100.00;102530.91;1018230;29;20374;-81
2022/12/17 14:07:13;;;;;;;68.07;38.33;;;;;;;-2.45;100.00;102534.94;1020277;29;20319;-83
2022/12/17 14:07:44;;;;;;;69.53;38.85;;;;;;;-2.42;100.00;102545.19;1020481;28;20299;-83
2022/12/17 14:08:18;;;;;;;68.20;38.70;;;;;;;-2.46;100.00;102538.47;1023423;28;20303;-84
2022/12/17 14:08:51;;;;;;;71.35;38.33;;;;;;;-2.40;100.00;102530.28;1022585;28;20361;-83
2022/12/17 14:09:39;;;;;;;66.20;37.38;;;;;;;-2.35;100.00;102545.66;1018971;29;20342;-83
2022/12/17 14:10:15;;;;;;;75.43;39.90;;;;;;;-2.34;100.00;102537.72;1015644;29;20300;-83
2022/12/17 14:10:50;;;;;;;70.55;37.08;;;;;;;-2.28;100.00;102537.34;1015315;29;20296;-83
2022/12/17 14:12:24;;;;;;;67.07;35.72;;;;;;;-2.54;100.00;102540.66;1025488;28;20306;-82
2022/12/17 14:13:07;;;;;;;67.55;36.60;;;;;;;-2.53;100.00;102543.19;1028576;28;20302;-83
2022/12/17 14:13:40;;;;;;;67.78;37.67;;;;;;;-2.50;100.00;102536.94;1023478;29;20299;-83
2022/12/17 14:14:24;;;;;;;63.33;37.67;;;;;;;-2.35;100.00;102543.88;1027024;28;20317;-83
2022/12/17 14:15:07;;;;;;;62.65;37.33;;;;;;;-2.30;100.00;102547.06;1019573;29;20368;-83
2022/12/17 14:15:44;;;;;;;67.20;38.05;;;;;;;-2.33;100.00;102549.84;1018841;29;20319;-83
2022/12/17 14:16:17;;;;;;;66.13;38.08;;;;;;;-2.41;100.00;102543.41;1022831;29;20302;-76
2022/12/17 14:16:49;;;;;;;66.80;38.50;;;;;;;-2.38;100.00;102541.44;1018898;29;20306;-76
2022/12/17 14:17:24;;;;;;;69.70;39.08;;;;;;;-2.29;100.00;102540.91;1020999;28;20322;-76
2022/12/17 14:17:57;;;;;;;65.18;35.80;;;;;;;-2.23;100.00;102543.13;1017453;29;20318;-75
2022/12/17 14:18:29;;;;;;;70.30;38.08;;;;;;;-2.25;100.00;102547.63;1019439;29;20291;-76
2022/12/17 14:19:00;;;;;;;66.03;38.22;;;;;;;-2.22;100.00;102550.03;1024654;28;20393;-76
2022/12/17 14:19:32;;;;;;;65.63;37.38;;;;;;;-2.27;100.00;102548.63;1017173;29;20546;-75
2022/12/17 14:20:09;;;;;;;61.85;36.03;;;;;;;-2.29;100.00;102540.91;1023515;29;20370;-76
2022/12/17 14:20:43;;;;;;;65.78;37.83;;;;;;;-2.25;100.00;102542.38;1021398;28;20310;-83
2022/12/17 14:21:21;;;;;;;69.95;40.63;;;;;;;-2.27;100.00;102541.66;1029513;28;20419;-80
2022/12/17 14:21:53;;;;;;;71.30;40.17;;;;;;;-2.21;100.00;102551.72;1029481;28;20357;-83
2022/12/17 14:22:31;;;;;;;66.25;39.65;;;;;;;-2.27;100.00;102549.47;1023332;28;20313;-84
2022/12/17 14:23:06;;;;;;;59.95;37.53;;;;;;;-2.22;100.00;102547.44;1023681;29;20290;-75
2022/12/17 14:23:41;;;;;;;66.30;39.70;;;;;;;-2.29;100.00;102553.09;1025197;28;20312;-75
2022/12/17 14:24:13;;;;;;;64.18;36.53;;;;;;;-2.19;100.00;102547.28;1029544;28;20298;-76
2022/12/17 14:24:45;;;;;;;64.53;39.30;;;;;;;-2.12;100.00;102552.97;1024063;28;20730;-76
2022/12/17 14:25:19;;;;;;;66.68;38.47;;;;;;;-2.05;100.00;102548.19;1013967;29;20905;-76
2022/12/17 14:25:51;;;;;;;63.63;36.30;;;;;;;-2.04;100.00;102555.09;1011785;29;20465;-76
2022/12/17 14:26:22;;;;;;;55.15;35.17;;;;;;;-2.19;100.00;102551.66;1015086;29;20308;-76
2022/12/17 14:26:59;;;;;;;62.58;37.42;;;;;;;-2.23;100.00;102550.97;1017880;28;20881;-81
2022/12/17 14:27:33;;;;;;;62.78;37.35;;;;;;;-2.29;100.00;102546.13;1029993;28;20292;-83
2022/12/17 14:28:23;;;;;;;61.80;35.42;;;;;;;-2.26;100.00;102550.31;1024888;28;20303;-83
2022/12/17 14:28:55;;;;;;;63.05;35.95;;;;;;;-2.28;100.00;102542.56;1019708;29;20321;-83
2022/12/17 14:29:30;;;;;;;69.60;36.25;;;;;;;-2.38;100.00;102541.44;1012245;29;20308;-83
2022/12/17 14:30:20;;;;;;;64.22;38.67;;;;;;;-2.52;100.00;102544.00;1011034;29;20305;-83
2022/12/17 14:31:03;;;;;;;56.30;34.17;;;;;;;-2.55;100.00;102541.59;1014243;29;20391;-83
2022/12/17 14:31:59;;;;;;;62.22;34.50;;;;;;;-2.49;100.00;102538.63;1016423;29;20822;-83
2022/12/17 14:32:34;;;;;;;59.30;35.63;;;;;;;-2.67;100.00;102537.09;1018819;29;20348;-83
2022/12/17 14:33:26;;;;;;;64.53;38.22;;;;;;;-2.74;100.00;102540.97;1019478;29;20339;-83
2022/12/17 14:34:01;;;;;;;64.28;35.13;;;;;;;-2.61;100.00;102534.13;1027786;28;20377;-83
2022/12/17 14:34:41;;;;;;;59.40;35.95;;;;;;;-2.65;100.00;102543.06;1028580;28;20397;-83
2022/12/17 14:35:28;;;;;;;64.95;37.28;;;;;;;-2.74;100.00;102538.34;1028370;28;20716;-83
2022/12/17 14:36:02;;;;;;;68.14;36.86;;;;;;;-2.76;100.00;102545.44;1019652;29;20411;-83
2022/12/17 14:36:39;;;;;;;61.80;36.13;;;;;;;-2.64;100.00;102537.75;1020642;29;20050;-83
2022/12/17 14:37:24;;;;;;;60.45;35.53;;;;;;;-2.67;100.00;102544.94;1023709;29;20773;-83
2022/12/17 14:37:56;;;;;;;59.92;37.47;;;;;;;-2.71;100.00;102543.44;1022922;28;20454;-83
2022/12/17 14:38:28;;;;;;;64.65;38.78;;;;;;;-2.70;100.00;102552.94;1022775;28;20318;-83
2022/12/17 14:39:31;;;;;;;66.70;36.08;;;;;;;-2.81;100.00;102549.16;1024222;28;20739;-83
2022/12/17 14:40:04;;;;;;;65.80;37.62;;;;;;;-2.92;100.00;102548.09;1027064;28;20798;-75
2022/12/17 14:40:36;;;;;;;55.22;35.92;;;;;;;-2.91;100.00;102553.22;1017187;29;20419;-75
2022/12/17 14:42:25;;;;;;;66.10;37.17;;;;;;;-2.54;100.00;102551.94;1020708;28;20318;-75
2022/12/17 14:42:58;;;;;;;60.03;37.55;;;;;;;-2.69;100.00;102552.00;1024827;28;20380;-75
2022/12/17 14:43:30;;;;;;;65.40;38.00;;;;;;;-2.65;100.00;102549.13;1018790;29;20303;-75
2022/12/17 14:44:03;;;;;;;68.10;38.65;;;;;;;-2.77;100.00;102554.19;1019254;29;20419;-75
2022/12/17 14:44:39;;;;;;;69.10;40.95;;;;;;;-2.59;100.00;102553.13;1012733;29;20309;-75
2022/12/17 14:45:14;;;;;;;67.18;39.60;;;;;;;-2.71;100.00;102543.44;1016113;29;20303;-76
2022/12/17 14:46:19;;;;;;;65.80;38.53;;;;;;;-2.64;100.00;102556.00;1014869;29;20343;-75
2022/12/17 14:46:43;;;;;;;66.15;39.03;;;;;;;-2.52;100.00;102559.66;1022709;28;20317;-75
2022/12/17 14:47:23;;;;;;;72.56;39.66;;;;;;;-2.56;100.00;102560.78;1018842;29;20295;-75
2022/12/17 14:47:59;;;;;;;70.53;40.20;;;;;;;-2.65;100.00;102554.34;1018922;28;20418;-75
2022/12/17 14:48:59;;;;;;;67.63;38.20;;;;;;;-2.64;100.00;102550.78;1019296;29;20606;-75
2022/12/17 14:49:22;;;;;;;69.96;40.26;;;;;;;-2.72;100.00;102553.00;1022458;28;20808;-76
2022/12/17 14:50:04;;;;;;;65.65;37.85;;;;;;;-2.73;100.00;102553.09;1025859;28;20436;-75
2022/12/17 14:50:36;;;;;;;;;;;;;;;-2.77;100.00;102556.78;1030632;28;20305;-75
2022/12/17 14:51:20;;;;;;;67.28;39.32;;;;;;;-2.72;100.00;102553.00;1019100;29;20029;-75
2022/12/17 14:51:51;;;;;;;57.12;35.88;;;;;;;-2.78;100.00;102560.31;1026488;28;20132;-75
2022/12/17 14:52:39;;;;;;;63.08;37.78;;;;;;;-2.64;100.00;102555.19;1026893;28;20050;-75
2022/12/17 14:53:40;;;;;;;65.90;38.83;;;;;;;-2.61;100.00;102560.22;1031523;28;20121;-83
2022/12/17 14:54:19;;;;;;;68.38;37.78;;;;;;;-2.55;100.00;102557.25;1024622;28;20334;-75
2022/12/17 14:54:50;;;;;;;68.18;37.42;;;;;;;-2.53;100.00;102568.41;1016384;29;20328;-76
2022/12/17 14:55:30;;;;;;;63.22;37.88;;;;;;;-2.46;100.00;102566.31;1017138;29;20304;-77
2022/12/17 14:56:02;;;;;;;61.72;37.75;;;;;;;-2.47;100.00;102570.66;1017339;29;20310;-75
2022/12/17 14:56:33;;;;;;;68.75;38.65;;;;;;;-2.50;100.00;102568.25;1021661;28;20386;-75
2022/12/17 14:57:05;;;;;;;62.03;37.13;;;;;;;-2.56;100.00;102566.84;1024490;28;20397;-75
2022/12/17 14:57:37;;;;;;;64.63;39.35;;;;;;;-2.56;100.00;102568.59;1022854;28;20317;-75
2022/12/17 14:58:17;;;;;;;61.95;38.20;;;;;;;-2.53;100.00;102573.63;1018195;29;20330;-75
2022/12/17 14:58:48;;;;;;;63.28;37.38;;;;;;;-2.50;100.00;102565.63;1012875;29;20781;-79
2022/12/17 14:59:34;;;;;;;64.07;37.17;;;;;;;-2.53;100.00;102569.25;1017516;29;20534;-75
2022/12/17 15:00:08;;;;;;;63.50;37.72;;;;;;;-2.54;100.00;102567.59;1018537;29;20315;-75
2022/12/17 15:00:46;;;;;;;66.30;38.42;;;;;;;-2.58;100.00;102567.84;1018314;29;20303;-75
2022/12/17 15:01:18;;;;;;;64.38;38.35;;;;;;;-2.57;100.00;102572.16;1014562;29;20510;-75
2022/12/17 15:01:51;;;;;;;64.15;39.15;;;;;;;-2.62;100.00;102576.78;1017896;29;20573;-75
2022/12/17 15:02:29;;;;;;;62.60;37.40;;;;;;;-2.59;100.00;102580.06;1019019;29;20374;-74
2022/12/17 15:03:00;;;;;;;66.88;38.80;;;;;;;-2.59;100.00;102576.59;1016588;29;20719;-75
2022/12/17 15:03:36;;;;;;;56.63;36.67;;;;;;;-2.57;100.00;102577.34;1020534;28;20331;-75
2022/12/17 15:04:08;;;;;;;67.78;37.38;;;;;;;-2.54;100.00;102579.78;1019016;29;20314;-75
2022/12/17 15:04:40;;;;;;;66.40;38.42;;;;;;;-2.54;100.00;102580.63;1020170;29;20310;-75
2022/12/17 15:05:14;;;;;;;68.07;36.95;;;;;;;-2.56;100.00;102573.81;1014863;29;20311;-76
2022/12/17 15:05:58;;;;;;;60.45;36.05;;;;;;;-2.53;100.00;102574.47;1019075;29;20662;-75
2022/12/17 15:06:30;;;;;;;62.75;35.65;;;;;;;-2.54;100.00;102577.19;1017706;29;20296;-75
2022/12/17 15:07:01;;;;;;;58.33;33.85;;;;;;;-2.53;100.00;102568.41;1022458;28;20295;-75
2022/12/17 15:07:33;;;;;;;55.25;36.05;;;;;;;-2.49;100.00;102575.13;1021196;28;20381;-75
2022/12/17 15:08:04;;;;;;;59.63;36.85;;;;;;;-2.51;100.00;102571.78;1013260;29;20297;-75
2022/12/17 15:08:39;;;;;;;60.95;36.90;;;;;;;-2.45;100.00;102570.63;1019065;29;20307;-75
2022/12/17 15:09:12;;;;;;;57.47;36.22;;;;;;;-2.57;100.00;102574.75;1016063;29;21091;-75
2022/12/17 15:09:43;;;;;;;68.70;38.15;;;;;;;-2.63;100.00;102573.34;1019950;29;20287;-74
2022/12/17 15:10:18;;;;;;;59.13;38.30;;;;;;;-2.59;100.00;102569.63;1023035;28;20417;-75
2022/12/17 15:10:50;;;;;;;56.03;36.05;;;;;;;-2.51;100.00;102570.00;1027136;28;20321;-75
2022/12/17 15:11:22;;;;;;;55.65;35.33;;;;;;;-2.56;100.00;102573.81;1025442;28;20325;-75
2022/12/17 15:11:53;;;;;;;59.63;36.40;;;;;;;-2.46;100.00;102568.94;1023290;28;20306;-75
2022/12/17 15:12:26;;;;;;;57.30;36.28;;;;;;;-2.40;100.00;102573.78;1027040;28;20345;-75
2022/12/17 15:13:00;;;;;;;60.75;38.83;;;;;;;-2.49;100.00;102569.91;1024468;28;21033;-75
2022/12/17 15:13:32;;;;;;;58.85;36.72;;;;;;;-2.51;100.00;102572.63;1027415;28;20317;-75
2022/12/17 15:14:04;;;;;;;67.85;37.85;;;;;;;-2.49;100.00;102575.97;1024943;28;20400;-75
2022/12/17 15:14:35;;;;;;;59.38;36.75;;;;;;;-2.51;100.00;102572.63;1020519;29;20299;-75
2022/12/17 15:15:11;;;;;;;60.40;36.55;;;;;;;-2.57;100.00;102572.97;1019380;29;20763;-75
2022/12/17 15:15:43;;;;;;;59.45;37.08;;;;;;;-2.47;100.00;102578.50;1011471;29;20305;-75
2022/12/17 15:16:15;;;;;;;66.57;38.25;;;;;;;-2.41;100.00;102577.31;1014849;29;20711;-75
2022/12/17 15:16:46;;;;;;;62.47;37.67;;;;;;;-2.40;100.00;102579.00;1022358;28;20416;-75
2022/12/17 15:17:18;;;;;;;59.35;38.53;;;;;;;-2.43;100.00;102576.56;1026995;28;20293;-79
2022/12/17 15:17:50;;;;;;;60.00;38.42;;;;;;;-2.42;100.00;102573.88;1024337;28;20310;-75
2022/12/17 15:18:21;;;;;;;59.08;36.85;;;;;;;-2.55;100.00;102578.94;1027480;28;20399;-75
2022/12/17 15:18:53;;;;;;;63.25;39.08;;;;;;;-2.64;100.00;102581.25;1024084;29;20334;-75
2022/12/17 15:19:25;;;;;;;62.95;36.53;;;;;;;-2.52;100.00;102575.31;1025047;28;20893;-75
2022/12/17 15:19:56;;;;;;;55.85;36.50;;;;;;;-2.56;100.00;102584.25;1028414;28;20294;-83
2022/12/17 15:20:28;;;;;;;58.92;36.15;;;;;;;-2.59;100.00;102576.59;1024725;28;20380;-75
2022/12/17 15:21:00;;;;;;;56.70;35.92;;;;;;;-2.56;100.00;102579.88;1028349;28;20317;-83
2022/12/17 15:21:32;;;;;;;57.95;36.22;;;;;;;-2.58;100.00;102586.97;1021316;29;20426;-76
2022/12/17 15:22:04;;;;;;;62.13;35.53;;;;;;;-2.56;100.00;102582.50;1017838;29;20347;-77
2022/12/17 15:22:37;;;;;;;62.83;37.80;;;;;;;-2.57;100.00;102577.34;1016428;29;20300;-75
2022/12/17 15:23:14;;;;;;;61.28;38.20;;;;;;;-2.57;100.00;102577.34;1020654;29;20303;-75
2022/12/17 15:23:46;;;;;;;62.97;37.75;;;;;;;-2.55;100.00;102575.50;1025605;28;20309;-75
2022/12/17 15:24:19;;;;;;;64.70;37.97;;;;;;;-2.40;100.00;102579.84;1030639;28;20298;-75
2022/12/17 15:24:51;;;;;;;56.17;35.85;;;;;;;-2.52;100.00;102575.31;1031295;28;20329;-75
2022/12/17 15:25:28;;;;;;;61.17;35.70;;;;;;;-2.49;100.00;102580.34;1028143;28;20309;-79
2022/12/17 15:26:00;;;;;;;65.10;37.97;;;;;;;-2.54;100.00;102582.41;1026064;28;20301;-75
2022/12/17 15:26:32;;;;;;;60.58;36.63;;;;;;;-2.61;100.00;102588.91;1021319;29;20844;-75
2022/12/17 15:27:03;;;;;;;60.22;37.15;;;;;;;-2.61;100.00;102592.34;1023979;28;20310;-75
2022/12/17 15:27:35;;;;;;;63.83;36.97;;;;;;;-2.60;100.00;102587.97;1028141;28;20301;-75
2022/12/17 15:28:08;;;;;;;67.18;37.25;;;;;;;-2.57;100.00;102590.41;1030260;28;20827;-75
2022/12/17 15:28:40;;;;;;;62.03;38.88;;;;;;;-2.54;100.00;102592.84;1031810;28;20305;-76
2022/12/17 15:29:12;;;;;;;59.92;38.00;;;;;;;-2.58;100.00;102588.72;1027300;28;20289;-75
2022/12/17 15:29:44;;;;;;;67.22;39.30;;;;;;;-2.53;100.00;102584.91;1020064;29;20295;-75
2022/12/17 15:30:16;;;;;;;62.67;38.95;;;;;;;-2.56;100.00;102594.69;1019496;29;20354;-75
2022/12/17 15:30:48;;;;;;;58.78;38.38;;;;;;;-2.57;100.00;102593.00;1016726;29;20312;-75
2022/12/17 15:31:20;;;;;;;62.17;40.03;;;;;;;-2.54;100.00;102590.22;1019978;29;20670;-75
2022/12/17 15:31:57;;;;;;;67.65;37.17;;;;;;;-2.55;100.00;102588.53;1021048;28;20312;-75
2022/12/17 15:32:28;;;;;;;62.95;38.13;;;;;;;-2.58;100.00;102581.75;1026669;28;20786;-74
2022/12/17 15:33:00;;;;;;;62.67;39.67;;;;;;;-2.56;100.00;102589.47;1026033;28;20297;-75
2022/12/17 15:33:31;;;;;;;58.42;37.53;;;;;;;-2.54;100.00;102585.00;1023551;28;20318;-75
2022/12/17 15:34:03;;;;;;;60.88;37.65;;;;;;;-2.49;100.00;102586.41;1022234;29;20307;-75
2022/12/17 15:34:35;;;;;;;65.85;39.17;;;;;;;-2.49;100.00;102596.00;1022608;29;20327;-75
2022/12/17 15:35:07;;;;;;;65.03;38.25;;;;;;;-2.53;100.00;102591.91;1023674;28;20303;-75
2022/12/17 15:35:39;;;;;;;59.47;37.83;;;;;;;-2.56;100.00;102586.88;1020395;29;20299;-75
2022/12/17 15:36:11;;;;;;;71.03;39.70;;;;;;;-2.52;100.00;102588.38;1019899;29;20838;-75
2022/12/17 15:36:42;;;;;;;60.92;39.30;;;;;;;-2.55;100.00;102598.97;1015787;29;20687;-75
2022/12/17 15:37:14;;;;;;;55.70;36.95;;;;;;;-2.54;100.00;102587.63;1015763;29;20300;-75
2022/12/17 15:37:55;;;;;;;65.43;38.60;;;;;;;-2.58;100.00;102591.34;1011119;29;20411;-75
2022/12/17 15:38:27;;;;;;;62.35;38.53;;;;;;;-2.55;100.00;102591.16;1015762;29;20378;-75
2022/12/17 15:38:59;;;;;;;62.88;38.17;;;;;;;-2.75;100.00;102591.44;1020264;29;20366;-75
2022/12/17 15:39:30;;;;;;;57.88;38.55;;;;;;;-2.78;100.00;102589.00;1029377;28;20305;-75
2022/12/17 15:40:03;;;;;;;61.97;37.55;;;;;;;-2.92;100.00;102588.03;1027616;28;20374;-75
2022/12/17 15:40:35;;;;;;;59.53;38.40;;;;;;;-2.96;100.00;102581.31;1028594;28;20831;-75
2022/12/17 15:43:37;;;;;;;61.08;34.53;;;;;;;-2.98;100.00;102583.16;1024266;28;20035;-75
2022/12/17 15:44:08;;;;;;;60.95;35.83;;;;;;;-3.08;100.00;102587.19;1023899;28;20294;-75
2022/12/17 15:44:40;;;;;;;62.90;37.40;;;;;;;-2.89;100.00;102584.41;1027212;28;20796;-75
2022/12/17 15:45:12;;;;;;;56.63;35.50;;;;;;;-2.88;100.00;102589.53;1027765;28;20298;-75
2022/12/17 15:45:48;;;;;;;63.60;38.10;;;;;;;-2.83;100.00;102586.66;1027844;28;20333;-75
2022/12/17 15:46:20;;;;;;;59.88;38.28;;;;;;;-2.87;100.00;102587.78;1023203;28;20385;-75
2022/12/17 15:46:51;;;;;;;62.03;38.28;;;;;;;-2.85;100.00;102585.91;1021618;29;20307;-75
2022/12/17 15:47:23;;;;;;;60.90;38.20;;;;;;;-2.89;100.00;102593.06;1028145;28;20298;-83
2022/12/17 15:47:55;;;;;;;62.13;37.97;;;;;;;-2.96;100.00;102594.34;1025349;28;20294;-83
2022/12/17 15:48:26;;;;;;;59.05;38.70;;;;;;;-3.09;100.00;102595.09;1028394;28;20668;-83
2022/12/17 15:48:58;;;;;;;62.50;38.58;;;;;;;-3.12;100.00;102590.91;1025881;28;20380;-83
2022/12/17 15:49:30;;;;;;;61.88;37.58;;;;;;;-3.11;100.00;102592.56;1024552;28;20306;-83
2022/12/17 15:50:02;;;;;;;64.82;37.50;;;;;;;-3.16;100.00;102592.00;1027094;28;20790;-83
2022/12/17 15:50:34;;;;;;;68.40;38.15;;;;;;;-3.21;100.00;102594.84;1021982;29;20833;-83
2022/12/17 15:51:06;;;;;;;61.10;39.60;;;;;;;-3.16;100.00;102590.22;1025611;28;20596;-83
2022/12/17 15:51:37;;;;;;;64.32;39.67;;;;;;;-3.17;100.00;102595.53;1028044;28;20317;-83
2022/12/17 15:52:09;;;;;;;68.22;39.42;;;;;;;-3.27;100.00;102591.75;1027815;28;20313;-83
2022/12/17 15:52:41;;;;;;;62.40;39.97;;;;;;;-3.13;100.00;102594.44;1027009;28;20348;-83
2022/12/17 15:53:13;;;;;;;66.63;39.38;;;;;;;-3.15;100.00;102591.91;1023578;28;20306;-82
2022/12/17 15:53:44;;;;;;;62.60;39.03;;;;;;;-3.02;100.00;102593.81;1020291;29;20304;-83
2022/12/17 15:54:16;;;;;;;70.72;41.08;;;;;;;-3.13;100.00;102597.03;1016440;29;20319;-83
2022/12/17 15:54:48;;;;;;;66.15;40.35;;;;;;;-3.16;100.00;102592.00;1021461;28;20307;-82
2022/12/17 15:55:20;;;;;;;69.28;40.80;;;;;;;-3.18;100.00;102594.69;1020192;28;20334;-83
2022/12/17 15:55:58;;;;;;;63.58;40.00;;;;;;;-3.20;100.00;102593.09;1020537;29;20315;-83
2022/12/17 15:56:30;;;;;;;71.50;41.42;;;;;;;-2.96;100.00;102596.94;1023329;28;20780;-82